Terminal Aerodrome Forecast
Issued by NWS

Home | Current Version | Previous Version | Text Only | Print | Product List | Glossary Off
Versions: 1 2 3 4 5 6 7 8 9 10 11 12 13 14 15 16 17

000
FTUS43 KBIS 221630 AAA
TAFMOT
TAF AMD
KMOT 221630Z 2216/2312 36013G25KT P6SM VCSH BKN060 OVC080
     FM221800 35016G24KT P6SM VCSH BKN045
     FM230100 34008KT P6SM BKN070=

USA.gov is the U.S. government's official web portal to all federal, state and local government web resources and services.